sensor_id;sensor_type;location;lat;lon;timestamp;pressure;altitude;pressure_sealevel;temperature;humidity
13348;BME280;6743;49.934;9.138;2023-02-20T00:01:50;101536.00;;;8.41;100.00
13348;BME280;6743;49.934;9.138;2023-02-20T00:04:16;101534.31;;;8.40;100.00
13348;BME280;6743;49.934;9.138;2023-02-20T00:06:43;101534.53;;;8.37;100.00
13348;BME280;6743;49.934;9.138;2023-02-20T00:09:09;101537.31;;;8.36;100.00
13348;BME280;6743;49.934;9.138;2023-02-20T00:11:35;101519.75;;;8.35;100.00
13348;BME280;6743;49.934;9.138;2023-02-20T00:14:02;101529.72;;;8.31;100.00
13348;BME280;6743;49.934;9.138;2023-02-20T00:16:28;101518.41;;;8.29;100.00
13348;BME280;6743;49.934;9.138;2023-02-20T00:18:54;101530.91;;;8.27;100.00
13348;BME280;6743;49.934;9.138;2023-02-20T00:21:20;101528.37;;;8.25;100.00
13348;BME280;6743;49.934;9.138;2023-02-20T00:23:46;101519.59;;;8.25;100.00
13348;BME280;6743;49.934;9.138;2023-02-20T00:26:13;101512.50;;;8.25;100.00
13348;BME280;6743;49.934;9.138;2023-02-20T00:28:40;101503.72;;;8.25;100.00
13348;BME280;6743;49.934;9.138;2023-02-20T00:31:07;101505.53;;;8.24;100.00
13348;BME280;6743;49.934;9.138;2023-02-20T00:33:36;101510.12;;;8.22;100.00
13348;BME280;6743;49.934;9.138;2023-02-20T00:36:04;101519.84;;;8.22;100.00
13348;BME280;6743;49.934;9.138;2023-02-20T00:38:30;101513.81;;;8.20;100.00
13348;BME280;6743;49.934;9.138;2023-02-20T00:40:56;101514.78;;;8.19;100.00
13348;BME280;6743;49.934;9.138;2023-02-20T00:43:22;101513.34;;;8.15;100.00
13348;BME280;6743;49.934;9.138;2023-02-20T00:45:48;101514.41;;;8.12;100.00
13348;BME280;6743;49.934;9.138;2023-02-20T00:48:14;101513.81;;;8.09;100.00
13348;BME280;6743;49.934;9.138;2023-02-20T00:50:40;101515.00;;;8.05;100.00
13348;BME280;6743;49.934;9.138;2023-02-20T00:53:06;101512.72;;;8.00;100.00
13348;BME280;6743;49.934;9.138;2023-02-20T00:55:32;101525.19;;;7.98;100.00
13348;BME280;6743;49.934;9.138;2023-02-20T00:57:58;101519.31;;;7.95;100.00
13348;BME280;6743;49.934;9.138;2023-02-20T01:00:26;101509.81;;;7.92;100.00
13348;BME280;6743;49.934;9.138;2023-02-20T01:02:53;101512.69;;;7.89;100.00
13348;BME280;6743;49.934;9.138;2023-02-20T01:05:19;101510.28;;;7.86;100.00
13348;BME280;6743;49.934;9.138;2023-02-20T01:07:45;101505.34;;;7.81;100.00
13348;BME280;6743;49.934;9.138;2023-02-20T01:10:11;101503.06;;;7.77;100.00
13348;BME280;6743;49.934;9.138;2023-02-20T01:12:38;101499.69;;;7.75;100.00
13348;BME280;6743;49.934;9.138;2023-02-20T01:15:04;101505.22;;;7.72;100.00
13348;BME280;6743;49.934;9.138;2023-02-20T01:17:31;101498.44;;;7.68;100.00
13348;BME280;6743;49.934;9.138;2023-02-20T01:19:56;101503.53;;;7.71;100.00
13348;BME280;6743;49.934;9.138;2023-02-20T01:22:23;101510.72;;;7.69;100.00
13348;BME280;6743;49.934;9.138;2023-02-20T01:24:48;101501.22;;;7.66;100.00
13348;BME280;6743;49.934;9.138;2023-02-20T01:27:15;101498.69;;;7.65;100.00
13348;BME280;6743;49.934;9.138;2023-02-20T01:29:41;101508.53;;;7.63;100.00
13348;BME280;6743;49.934;9.138;2023-02-20T01:32:10;101490.75;;;7.54;100.00
13348;BME280;6743;49.934;9.138;2023-02-20T01:34:36;101510.69;;;7.58;100.00
13348;BME280;6743;49.934;9.138;2023-02-20T01:37:02;101502.13;;;7.54;100.00
13348;BME280;6743;49.934;9.138;2023-02-20T01:39:28;101508.50;;;7.51;100.00
13348;BME280;6743;49.934;9.138;2023-02-20T01:41:58;101506.19;;;7.47;100.00
13348;BME280;6743;49.934;9.138;2023-02-20T01:44:28;101506.53;;;7.42;100.00
13348;BME280;6743;49.934;9.138;2023-02-20T01:46:55;101500.31;;;7.43;100.00
13348;BME280;6743;49.934;9.138;2023-02-20T01:49:30;101503.78;;;7.44;100.00
13348;BME280;6743;49.934;9.138;2023-02-20T01:52:02;101499.56;;;7.41;100.00
13348;BME280;6743;49.934;9.138;2023-02-20T01:54:30;101489.00;;;7.41;100.00
13348;BME280;6743;49.934;9.138;2023-02-20T01:56:59;101489.00;;;7.41;100.00
13348;BME280;6743;49.934;9.138;2023-02-20T01:59:29;101488.41;;;7.38;100.00
13348;BME280;6743;49.934;9.138;2023-02-20T02:01:56;101492.84;;;7.37;100.00
13348;BME280;6743;49.934;9.138;2023-02-20T02:04:23;101488.63;;;7.35;100.00
13348;BME280;6743;49.934;9.138;2023-02-20T02:06:51;101485.13;;;7.34;100.00
13348;BME280;6743;49.934;9.138;2023-02-20T02:09:25;101483.59;;;7.32;100.00
13348;BME280;6743;49.934;9.138;2023-02-20T02:11:52;101487.28;;;7.29;100.00
13348;BME280;6743;49.934;9.138;2023-02-20T02:14:18;101482.13;;;7.28;100.00
13348;BME280;6743;49.934;9.138;2023-02-20T02:16:51;101483.06;;;7.27;100.00
13348;BME280;6743;49.934;9.138;2023-02-20T02:19:40;101484.75;;;7.28;100.00
13348;BME280;6743;49.934;9.138;2023-02-20T02:22:31;101482.38;;;7.25;100.00
13348;BME280;6743;49.934;9.138;2023-02-20T02:25:22;101471.28;;;7.20;100.00
13348;BME280;6743;49.934;9.138;2023-02-20T02:28:28;101471.63;;;7.15;100.00
13348;BME280;6743;49.934;9.138;2023-02-20T02:34:44;101469.06;;;7.02;100.00
13348;BME280;6743;49.934;9.138;2023-02-20T02:37:17;101470.56;;;6.94;100.00
13348;BME280;6743;49.934;9.138;2023-02-20T02:39:49;101471.75;;;6.90;100.00
13348;BME280;6743;49.934;9.138;2023-02-20T02:42:25;101462.59;;;6.83;100.00
13348;BME280;6743;49.934;9.138;2023-02-20T02:44:57;101469.88;;;6.79;100.00
13348;BME280;6743;49.934;9.138;2023-02-20T02:47:36;101457.56;;;6.67;100.00
13348;BME280;6743;49.934;9.138;2023-02-20T02:50:15;101459.03;;;6.71;100.00
13348;BME280;6743;49.934;9.138;2023-02-20T02:52:42;101453.03;;;6.69;100.00
13348;BME280;6743;49.934;9.138;2023-02-20T02:55:15;101451.41;;;6.55;100.00
13348;BME280;6743;49.934;9.138;2023-02-20T02:57:41;101460.87;;;6.58;100.00
13348;BME280;6743;49.934;9.138;2023-02-20T03:00:09;101460.25;;;6.54;100.00
13348;BME280;6743;49.934;9.138;2023-02-20T03:02:41;101457.97;;;6.50;100.00
13348;BME280;6743;49.934;9.138;2023-02-20T03:05:11;101464.28;;;6.47;100.00
13348;BME280;6743;49.934;9.138;2023-02-20T03:07:40;101458.50;;;6.42;100.00
13348;BME280;6743;49.934;9.138;2023-02-20T03:10:12;101455.31;;;6.37;100.00
13348;BME280;6743;49.934;9.138;2023-02-20T03:12:42;101459.34;;;6.30;100.00
13348;BME280;6743;49.934;9.138;2023-02-20T03:15:19;101451.03;;;6.23;100.00
13348;BME280;6743;49.934;9.138;2023-02-20T03:18:05;101447.78;;;6.20;100.00
13348;BME280;6743;49.934;9.138;2023-02-20T03:20:36;101451.69;;;6.14;100.00
13348;BME280;6743;49.934;9.138;2023-02-20T03:23:04;101445.03;;;6.09;100.00
13348;BME280;6743;49.934;9.138;2023-02-20T03:25:34;101444.31;;;6.07;100.00
13348;BME280;6743;49.934;9.138;2023-02-20T03:28:04;101431.78;;;5.98;100.00
13348;BME280;6743;49.934;9.138;2023-02-20T03:30:35;101451.47;;;6.05;100.00
13348;BME280;6743;49.934;9.138;2023-02-20T03:33:10;101452.31;;;6.05;100.00
13348;BME280;6743;49.934;9.138;2023-02-20T03:35:58;101451.69;;;6.02;100.00
13348;BME280;6743;49.934;9.138;2023-02-20T03:38:48;101444.75;;;6.01;100.00
13348;BME280;6743;49.934;9.138;2023-02-20T03:41:35;101452.75;;;5.99;100.00
13348;BME280;6743;49.934;9.138;2023-02-20T03:44:24;101458.44;;;5.93;100.00
13348;BME280;6743;49.934;9.138;2023-02-20T03:46:53;101462.88;;;5.92;100.00
13348;BME280;6743;49.934;9.138;2023-02-20T03:49:24;101458.66;;;5.90;100.00
13348;BME280;6743;49.934;9.138;2023-02-20T03:52:11;101459.59;;;5.89;100.00
13348;BME280;6743;49.934;9.138;2023-02-20T03:54:37;101465.06;;;5.86;100.00
13348;BME280;6743;49.934;9.138;2023-02-20T03:57:08;101473.91;;;5.85;100.00
13348;BME280;6743;49.934;9.138;2023-02-20T03:59:39;101462.62;;;5.83;100.00
13348;BME280;6743;49.934;9.138;2023-02-20T04:02:10;101466.94;;;5.84;100.00
13348;BME280;6743;49.934;9.138;2023-02-20T04:04:41;101473.25;;;5.81;100.00
13348;BME280;6743;49.934;9.138;2023-02-20T04:07:11;101476.09;;;5.78;100.00
13348;BME280;6743;49.934;9.138;2023-02-20T04:09:43;101475.59;;;5.73;100.00
13348;BME280;6743;49.934;9.138;2023-02-20T04:12:15;101473.91;;;5.72;100.00
13348;BME280;6743;49.934;9.138;2023-02-20T04:14:44;101487.16;;;5.71;100.00
13348;BME280;6743;49.934;9.138;2023-02-20T04:17:13;101485.47;;;5.70;100.00
13348;BME280;6743;49.934;9.138;2023-02-20T04:19:40;101484.53;;;5.71;100.00
13348;BME280;6743;49.934;9.138;2023-02-20T04:22:10;101487.16;;;5.71;100.00
13348;BME280;6743;49.934;9.138;2023-02-20T04:24:42;101489.88;;;5.69;100.00
13348;BME280;6743;49.934;9.138;2023-02-20T04:27:11;101479.56;;;5.66;100.00
13348;BME280;6743;49.934;9.138;2023-02-20T04:29:37;101476.38;;;5.61;100.00
13348;BME280;6743;49.934;9.138;2023-02-20T04:32:03;101481.66;;;5.61;100.00
13348;BME280;6743;49.934;9.138;2023-02-20T04:34:29;101474.91;;;5.57;100.00
13348;BME280;6743;49.934;9.138;2023-02-20T04:37:05;101467.13;;;5.55;100.00
13348;BME280;6743;49.934;9.138;2023-02-20T04:39:31;101464.72;;;5.52;100.00
13348;BME280;6743;49.934;9.138;2023-02-20T04:41:57;101466.69;;;5.49;100.00
13348;BME280;6743;49.934;9.138;2023-02-20T04:44:24;101470.16;;;5.49;100.00
13348;BME280;6743;49.934;9.138;2023-02-20T04:46:55;101470.16;;;5.49;100.00
13348;BME280;6743;49.934;9.138;2023-02-20T04:49:22;101463.31;;;5.47;100.00
13348;BME280;6743;49.934;9.138;2023-02-20T04:51:48;101468.78;;;5.44;100.00
13348;BME280;6743;49.934;9.138;2023-02-20T04:54:14;101472.28;;;5.44;100.00
13348;BME280;6743;49.934;9.138;2023-02-20T04:56:40;101475.94;;;5.42;100.00
13348;BME280;6743;49.934;9.138;2023-02-20T04:59:06;101473.41;;;5.40;100.00
13348;BME280;6743;49.934;9.138;2023-02-20T05:01:33;101478.88;;;5.37;100.00
13348;BME280;6743;49.934;9.138;2023-02-20T05:03:58;101479.06;;;5.34;100.00
13348;BME280;6743;49.934;9.138;2023-02-20T05:06:24;101468.13;;;5.28;100.00
13348;BME280;6743;49.934;9.138;2023-02-20T05:08:50;101469.28;;;5.24;100.00
13348;BME280;6743;49.934;9.138;2023-02-20T05:11:16;101469.38;;;5.22;100.00
13348;BME280;6743;49.934;9.138;2023-02-20T05:13:42;101472.84;;;5.23;100.00
13348;BME280;6743;49.934;9.138;2023-02-20T05:16:08;101472.09;;;5.21;100.00
13348;BME280;6743;49.934;9.138;2023-02-20T05:18:35;101462.62;;;5.18;100.00
13348;BME280;6743;49.934;9.138;2023-02-20T05:21:01;101461.78;;;5.18;100.00
13348;BME280;6743;49.934;9.138;2023-02-20T05:23:46;101454.94;;;5.15;100.00
13348;BME280;6743;49.934;9.138;2023-02-20T05:26:23;101451.84;;;5.08;100.00
13348;BME280;6743;49.934;9.138;2023-02-20T05:28:51;101455.66;;;5.04;100.00
13348;BME280;6743;49.934;9.138;2023-02-20T05:31:17;101459.41;;;5.00;100.00
13348;BME280;6743;49.934;9.138;2023-02-20T05:33:44;101457.94;;;4.96;100.00
13348;BME280;6743;49.934;9.138;2023-02-20T05:36:10;101447.81;;;4.90;100.00
13348;BME280;6743;49.934;9.138;2023-02-20T05:38:36;101442.72;;;4.87;100.00
13348;BME280;6743;49.934;9.138;2023-02-20T05:41:02;101424.38;;;4.73;100.00
13348;BME280;6743;49.934;9.138;2023-02-20T05:43:28;101443.97;;;4.82;100.00
13348;BME280;6743;49.934;9.138;2023-02-20T05:45:54;101436.50;;;4.75;100.00
13348;BME280;6743;49.934;9.138;2023-02-20T05:48:20;101434.50;;;4.79;100.00
13348;BME280;6743;49.934;9.138;2023-02-20T05:50:46;101438.62;;;4.83;100.00
13348;BME280;6743;49.934;9.138;2023-02-20T05:53:15;101426.09;;;4.87;100.00
13348;BME280;6743;49.934;9.138;2023-02-20T05:55:41;101431.06;;;4.91;100.00
13348;BME280;6743;49.934;9.138;2023-02-20T05:58:06;101430.97;;;4.93;100.00
13348;BME280;6743;49.934;9.138;2023-02-20T06:00:32;101440.16;;;5.00;100.00
13348;BME280;6743;49.934;9.138;2023-02-20T06:02:58;101448.47;;;5.06;100.00
13348;BME280;6743;49.934;9.138;2023-02-20T06:05:24;101439.25;;;5.13;100.00
13348;BME280;6743;49.934;9.138;2023-02-20T06:07:53;101440.75;;;5.18;100.00
13348;BME280;6743;49.934;9.138;2023-02-20T06:10:19;101444.00;;;5.21;100.00
13348;BME280;6743;49.934;9.138;2023-02-20T06:12:45;101447.37;;;5.23;100.00
13348;BME280;6743;49.934;9.138;2023-02-20T06:15:15;101448.00;;;5.27;100.00
13348;BME280;6743;49.934;9.138;2023-02-20T06:17:41;101444.25;;;5.31;100.00
13348;BME280;6743;49.934;9.138;2023-02-20T06:20:09;101441.62;;;5.31;100.00
13348;BME280;6743;49.934;9.138;2023-02-20T06:22:36;101433.16;;;5.26;100.00
13348;BME280;6743;49.934;9.138;2023-02-20T06:25:04;101447.31;;;5.37;100.00
13348;BME280;6743;49.934;9.138;2023-02-20T06:27:37;101440.97;;;5.40;100.00
13348;BME280;6743;49.934;9.138;2023-02-20T06:30:04;101439.84;;;5.44;100.00
13348;BME280;6743;49.934;9.138;2023-02-20T06:32:30;101437.75;;;5.49;100.00
13348;BME280;6743;49.934;9.138;2023-02-20T06:34:56;101438.50;;;5.51;100.00
13348;BME280;6743;49.934;9.138;2023-02-20T06:37:22;101433.84;;;5.54;100.00
13348;BME280;6743;49.934;9.138;2023-02-20T06:39:48;101437.13;;;5.58;100.00
13348;BME280;6743;49.934;9.138;2023-02-20T06:42:14;101433.41;;;5.61;100.00
13348;BME280;6743;49.934;9.138;2023-02-20T06:44:41;101433.22;;;5.64;100.00
13348;BME280;6743;49.934;9.138;2023-02-20T06:47:07;101447.25;;;5.64;100.00
13348;BME280;6743;49.934;9.138;2023-02-20T06:49:33;101428.56;;;5.54;100.00
13348;BME280;6743;49.934;9.138;2023-02-20T06:51:59;101458.38;;;5.68;100.00
13348;BME280;6743;49.934;9.138;2023-02-20T06:54:25;101454.72;;;5.70;100.00
13348;BME280;6743;49.934;9.138;2023-02-20T06:56:51;101453.78;;;5.71;100.00
13348;BME280;6743;49.934;9.138;2023-02-20T06:59:18;101454.53;;;5.73;100.00
13348;BME280;6743;49.934;9.138;2023-02-20T07:01:44;101459.66;;;5.75;100.00
13348;BME280;6743;49.934;9.138;2023-02-20T07:04:15;101456.94;;;5.76;100.00
13348;BME280;6743;49.934;9.138;2023-02-20T07:06:41;101455.97;;;5.77;100.00
13348;BME280;6743;49.934;9.138;2023-02-20T07:09:08;101451.56;;;5.78;100.00
13348;BME280;6743;49.934;9.138;2023-02-20T07:11:34;101447.13;;;5.78;100.00
13348;BME280;6743;49.934;9.138;2023-02-20T07:14:00;101455.78;;;5.80;100.00
13348;BME280;6743;49.934;9.138;2023-02-20T07:16:26;101450.28;;;5.83;100.00
13348;BME280;6743;49.934;9.138;2023-02-20T07:18:53;101450.19;;;5.85;100.00
13348;BME280;6743;49.934;9.138;2023-02-20T07:21:20;101449.25;;;5.86;100.00
13348;BME280;6743;49.934;9.138;2023-02-20T07:23:50;101448.31;;;5.87;100.00
13348;BME280;6743;49.934;9.138;2023-02-20T07:26:19;101436.38;;;5.81;100.00
13348;BME280;6743;49.934;9.138;2023-02-20T07:28:58;101447.25;;;5.89;100.00
13348;BME280;6743;49.934;9.138;2023-02-20T07:31:27;101453.19;;;5.93;100.00
13348;BME280;6743;49.934;9.138;2023-02-20T07:33:54;101438.41;;;5.90;100.00
13348;BME280;6743;49.934;9.138;2023-02-20T07:36:22;101444.94;;;5.98;100.00
13348;BME280;6743;49.934;9.138;2023-02-20T07:38:54;101451.81;;;6.00;100.00
13348;BME280;6743;49.934;9.138;2023-02-20T07:41:22;101455.16;;;6.02;100.00
13348;BME280;6743;49.934;9.138;2023-02-20T07:43:54;101455.06;;;6.04;100.00
13348;BME280;6743;49.934;9.138;2023-02-20T07:46:29;101454.13;;;6.05;100.00
13348;BME280;6743;49.934;9.138;2023-02-20T07:49:06;101455.56;;;6.09;100.00
13348;BME280;6743;49.934;9.138;2023-02-20T07:51:33;101452.00;;;6.10;100.00
13348;BME280;6743;49.934;9.138;2023-02-20T07:54:18;101455.38;;;6.12;100.00
13348;BME280;6743;49.934;9.138;2023-02-20T07:56:56;101450.94;;;6.12;100.00
13348;BME280;6743;49.934;9.138;2023-02-20T07:59:26;101445.59;;;6.14;100.00
13348;BME280;6743;49.934;9.138;2023-02-20T08:01:52;101448.94;;;6.16;100.00
13348;BME280;6743;49.934;9.138;2023-02-20T08:04:18;101448.72;;;6.19;100.00
13348;BME280;6743;49.934;9.138;2023-02-20T08:06:44;101457.37;;;6.21;100.00
13348;BME280;6743;49.934;9.138;2023-02-20T08:09:10;101449.25;;;6.24;100.00
13348;BME280;6743;49.934;9.138;2023-02-20T08:11:36;101447.25;;;6.27;100.00
13348;BME280;6743;49.934;9.138;2023-02-20T08:14:04;101454.06;;;6.30;100.00
13348;BME280;6743;49.934;9.138;2023-02-20T08:16:32;101444.19;;;6.33;100.00
13348;BME280;6743;49.934;9.138;2023-02-20T08:19:00;101446.72;;;6.35;100.00
13348;BME280;6743;49.934;9.138;2023-02-20T08:21:28;101441.84;;;6.42;100.00
13348;BME280;6743;49.934;9.138;2023-02-20T08:23:54;101435.38;;;6.46;100.00
13348;BME280;6743;49.934;9.138;2023-02-20T08:26:20;101440.22;;;6.52;100.00
13348;BME280;6743;49.934;9.138;2023-02-20T08:28:47;101437.28;;;6.56;100.00
13348;BME280;6743;49.934;9.138;2023-02-20T08:31:13;101406.78;;;6.52;100.00
13348;BME280;6743;49.934;9.138;2023-02-20T08:33:39;101422.34;;;6.68;100.00
13348;BME280;6743;49.934;9.138;2023-02-20T08:36:06;101414.84;;;6.75;100.00
13348;BME280;6743;49.934;9.138;2023-02-20T08:38:35;101414.50;;;6.79;100.00
13348;BME280;6743;49.934;9.138;2023-02-20T08:41:02;101412.47;;;6.83;100.00
13348;BME280;6743;49.934;9.138;2023-02-20T08:43:28;101409.75;;;6.84;100.00
13348;BME280;6743;49.934;9.138;2023-02-20T08:45:54;101410.44;;;6.86;100.00
13348;BME280;6743;49.934;9.138;2023-02-20T08:48:20;101402.22;;;6.91;100.00
13348;BME280;6743;49.934;9.138;2023-02-20T08:50:46;101397.44;;;6.96;100.00
13348;BME280;6743;49.934;9.138;2023-02-20T08:53:13;101388.22;;;7.01;100.00
13348;BME280;6743;49.934;9.138;2023-02-20T08:55:40;101392.19;;;7.07;100.00
13348;BME280;6743;49.934;9.138;2023-02-20T08:58:07;101380.69;;;7.08;100.00
13348;BME280;6743;49.934;9.138;2023-02-20T09:00:33;101382.37;;;7.20;100.00
13348;BME280;6743;49.934;9.138;2023-02-20T09:02:59;101393.31;;;7.27;100.00
13348;BME280;6743;49.934;9.138;2023-02-20T09:05:25;101390.34;;;7.31;100.00
13348;BME280;6743;49.934;9.138;2023-02-20T09:07:51;101387.34;;;7.36;100.00
13348;BME280;6743;49.934;9.138;2023-02-20T09:10:18;101396.50;;;7.43;100.00
13348;BME280;6743;49.934;9.138;2023-02-20T09:12:46;101399.50;;;7.49;100.00
13348;BME280;6743;49.934;9.138;2023-02-20T09:15:12;101394.59;;;7.56;100.00
13348;BME280;6743;49.934;9.138;2023-02-20T09:17:42;101402.66;;;7.66;100.00
13348;BME280;6743;49.934;9.138;2023-02-20T09:20:10;101383.94;;;7.69;100.00
13348;BME280;6743;49.934;9.138;2023-02-20T09:22:36;101394.62;;;7.78;100.00
13348;BME280;6743;49.934;9.138;2023-02-20T09:25:03;101402.31;;;7.81;100.00
13348;BME280;6743;49.934;9.138;2023-02-20T09:27:31;101401.97;;;7.86;100.00
13348;BME280;6743;49.934;9.138;2023-02-20T09:29:58;101394.78;;;7.88;100.00
13348;BME280;6743;49.934;9.138;2023-02-20T09:32:23;101363.16;;;7.75;100.00
13348;BME280;6743;49.934;9.138;2023-02-20T09:34:52;101398.47;;;7.97;100.00
13348;BME280;6743;49.934;9.138;2023-02-20T09:37:18;101397.03;;;8.04;100.00
13348;BME280;6743;49.934;9.138;2023-02-20T09:39:44;101394.62;;;8.12;100.00
13348;BME280;6743;49.934;9.138;2023-02-20T09:42:21;101393.78;;;8.22;100.00
13348;BME280;6743;49.934;9.138;2023-02-20T09:44:56;101390.31;;;8.33;100.00
13348;BME280;6743;49.934;9.138;2023-02-20T09:47:37;101390.16;;;8.46;100.00
13348;BME280;6743;49.934;9.138;2023-02-20T09:50:12;101390.38;;;8.54;100.00
13348;BME280;6743;49.934;9.138;2023-02-20T09:52:42;101382.06;;;8.58;100.00
13348;BME280;6743;49.934;9.138;2023-02-20T09:55:11;101384.38;;;8.63;100.00
13348;BME280;6743;49.934;9.138;2023-02-20T09:57:40;101366.81;;;8.62;100.00
13348;BME280;6743;49.934;9.138;2023-02-20T10:00:09;101364.75;;;8.65;100.00
13348;BME280;6743;49.934;9.138;2023-02-20T10:02:40;101372.87;;;8.74;100.00
13348;BME280;6743;49.934;9.138;2023-02-20T10:05:12;101380.09;;;8.83;100.00
13348;BME280;6743;49.934;9.138;2023-02-20T10:07:39;101341.19;;;8.62;100.00
13348;BME280;6743;49.934;9.138;2023-02-20T10:10:17;101368.28;;;8.87;100.00
13348;BME280;6743;49.934;9.138;2023-02-20T10:12:50;101380.88;;;8.94;100.00
13348;BME280;6743;49.934;9.138;2023-02-20T10:15:25;101377.72;;;9.00;100.00
13348;BME280;6743;49.934;9.138;2023-02-20T10:18:04;101381.09;;;9.02;100.00
13348;BME280;6743;49.934;9.138;2023-02-20T10:20:36;101381.81;;;9.04;100.00
13348;BME280;6743;49.934;9.138;2023-02-20T10:23:12;101371.78;;;9.08;100.00
13348;BME280;6743;49.934;9.138;2023-02-20T10:25:44;101361.78;;;9.12;100.00
13348;BME280;6743;49.934;9.138;2023-02-20T10:28:14;101358.87;;;9.15;100.00
13348;BME280;6743;49.934;9.138;2023-02-20T10:30:43;101373.69;;;9.17;100.00
13348;BME280;6743;49.934;9.138;2023-02-20T10:33:20;101357.06;;;9.15;100.00
13348;BME280;6743;49.934;9.138;2023-02-20T10:35:50;101357.47;;;9.11;100.00
13348;BME280;6743;49.934;9.138;2023-02-20T10:38:21;101373.72;;;9.27;100.00
13348;BME280;6743;49.934;9.138;2023-02-20T10:40:52;101361.06;;;9.30;100.00
13348;BME280;6743;49.934;9.138;2023-02-20T10:43:27;101346.69;;;9.23;100.00
13348;BME280;6743;49.934;9.138;2023-02-20T10:45:56;101351.75;;;9.36;100.00
13348;BME280;6743;49.934;9.138;2023-02-20T10:48:28;101343.56;;;9.39;100.00
13348;BME280;6743;49.934;9.138;2023-02-20T10:51:02;101328.91;;;9.35;100.00
13348;BME280;6743;49.934;9.138;2023-02-20T10:53:34;101341.69;;;9.51;100.00
13348;BME280;6743;49.934;9.138;2023-02-20T10:56:07;101335.97;;;9.55;100.00
13348;BME280;6743;49.934;9.138;2023-02-20T10:58:37;101332.75;;;9.52;100.00
13348;BME280;6743;49.934;9.138;2023-02-20T11:01:06;101334.66;;;9.70;100.00
13348;BME280;6743;49.934;9.138;2023-02-20T11:03:40;101340.81;;;9.71;100.00
13348;BME280;6743;49.934;9.138;2023-02-20T11:06:12;101322.13;;;9.72;100.00
13348;BME280;6743;49.934;9.138;2023-02-20T11:08:39;101327.84;;;9.77;100.00
13348;BME280;6743;49.934;9.138;2023-02-20T11:11:23;101322.72;;;9.85;100.00
13348;BME280;6743;49.934;9.138;2023-02-20T11:13:54;101323.47;;;9.97;100.00
13348;BME280;6743;49.934;9.138;2023-02-20T11:16:23;101309.53;;;10.05;100.00
13348;BME280;6743;49.934;9.138;2023-02-20T11:19:00;101301.75;;;10.13;100.00
13348;BME280;6743;49.934;9.138;2023-02-20T11:21:38;101306.78;;;10.16;100.00
13348;BME280;6743;49.934;9.138;2023-02-20T11:24:27;101295.78;;;10.20;100.00
13348;BME280;6743;49.934;9.138;2023-02-20T11:26:59;101292.16;;;10.21;100.00
13348;BME280;6743;49.934;9.138;2023-02-20T11:29:36;101287.00;;;10.20;100.00
13348;BME280;6743;49.934;9.138;2023-02-20T11:32:24;101276.66;;;10.17;100.00
13348;BME280;6743;49.934;9.138;2023-02-20T11:35:22;101277.34;;;10.19;100.00
13348;BME280;6743;49.934;9.138;2023-02-20T11:38:27;101271.34;;;10.17;100.00
13348;BME280;6743;49.934;9.138;2023-02-20T11:41:20;101275.56;;;10.29;100.00
13348;BME280;6743;49.934;9.138;2023-02-20T11:44:14;101275.16;;;10.34;100.00
13348;BME280;6743;49.934;9.138;2023-02-20T11:47:21;101271.09;;;10.39;100.00
13348;BME280;6743;49.934;9.138;2023-02-20T11:49:49;101265.50;;;10.52;100.00
13348;BME280;6743;49.934;9.138;2023-02-20T11:52:32;101274.72;;;10.67;100.00
13348;BME280;6743;49.934;9.138;2023-02-20T11:55:10;101265.78;;;10.68;100.00
13348;BME280;6743;49.934;9.138;2023-02-20T11:57:40;101263.41;;;10.75;100.00
13348;BME280;6743;49.934;9.138;2023-02-20T12:00:11;101258.22;;;10.83;100.00
13348;BME280;6743;49.934;9.138;2023-02-20T12:02:50;101248.59;;;10.82;100.00
13348;BME280;6743;49.934;9.138;2023-02-20T12:05:18;101226.37;;;10.83;100.00
13348;BME280;6743;49.934;9.138;2023-02-20T12:07:54;101236.44;;;10.79;100.00
13348;BME280;6743;49.934;9.138;2023-02-20T12:10:33;101220.81;;;10.76;100.00
13348;BME280;6743;49.934;9.138;2023-02-20T12:13:01;101226.97;;;10.77;100.00
13348;BME280;6743;49.934;9.138;2023-02-20T12:15:28;101215.63;;;10.84;100.00
13348;BME280;6743;49.934;9.138;2023-02-20T12:18:10;101220.22;;;10.92;100.00
13348;BME280;6743;49.934;9.138;2023-02-20T12:20:43;101198.81;;;10.93;100.00
13348;BME280;6743;49.934;9.138;2023-02-20T12:23:19;101196.16;;;11.03;100.00
13348;BME280;6743;49.934;9.138;2023-02-20T12:25:56;101201.97;;;11.16;100.00
13348;BME280;6743;49.934;9.138;2023-02-20T12:28:33;101193.81;;;11.27;100.00
13348;BME280;6743;49.934;9.138;2023-02-20T12:31:09;101198.56;;;11.33;100.00
13348;BME280;6743;49.934;9.138;2023-02-20T12:33:45;101184.72;;;11.30;100.00
13348;BME280;6743;49.934;9.138;2023-02-20T12:36:26;101186.25;;;11.32;100.00
13348;BME280;6743;49.934;9.138;2023-02-20T12:38:57;101183.28;;;11.35;100.00
13348;BME280;6743;49.934;9.138;2023-02-20T12:41:30;101178.28;;;11.32;100.00
13348;BME280;6743;49.934;9.138;2023-02-20T12:44:13;101171.53;;;11.38;100.00
13348;BME280;6743;49.934;9.138;2023-02-20T12:46:54;101162.59;;;11.39;100.00
13348;BME280;6743;49.934;9.138;2023-02-20T12:49:45;101167.59;;;11.42;100.00
13348;BME280;6743;49.934;9.138;2023-02-20T12:52:29;101174.22;;;11.56;100.00
13348;BME280;6743;49.934;9.138;2023-02-20T12:55:10;101160.19;;;11.63;100.00
13348;BME280;6743;49.934;9.138;2023-02-20T12:57:43;101158.03;;;11.76;100.00
13348;BME280;6743;49.934;9.138;2023-02-20T13:00:22;101138.31;;;11.79;100.00
13348;BME280;6743;49.934;9.138;2023-02-20T13:02:55;101154.94;;;11.81;100.00
13348;BME280;6743;49.934;9.138;2023-02-20T13:05:25;101151.13;;;11.83;100.00
13348;BME280;6743;49.934;9.138;2023-02-20T13:07:54;101138.06;;;11.90;100.00
13348;BME280;6743;49.934;9.138;2023-02-20T13:10:22;101132.47;;;11.93;100.00
13348;BME280;6743;49.934;9.138;2023-02-20T13:12:51;101127.12;;;11.93;100.00
13348;BME280;6743;49.934;9.138;2023-02-20T13:15:36;101131.63;;;11.93;100.00
13348;BME280;6743;49.934;9.138;2023-02-20T13:18:16;101125.53;;;12.00;100.00
13348;BME280;6743;49.934;9.138;2023-02-20T13:20:50;101125.06;;;12.05;100.00